sensor_id;sensor_type;location;lat;lon;timestamp;temperature;humidity
37782;DHT22;23621;50.878;4.584;2023-07-02T00:00:08;23.90;74.40
37782;DHT22;23621;50.878;4.584;2023-07-02T00:02:56;23.80;74.40
37782;DHT22;23621;50.878;4.584;2023-07-02T00:05:44;23.70;74.60
37782;DHT22;23621;50.878;4.584;2023-07-02T00:08:31;23.70;74.50
37782;DHT22;23621;50.878;4.584;2023-07-02T00:11:19;23.60;74.60
37782;DHT22;23621;50.878;4.584;2023-07-02T00:14:07;23.70;74.80
37782;DHT22;23621;50.878;4.584;2023-07-02T00:16:54;23.70;74.80
37782;DHT22;23621;50.878;4.584;2023-07-02T00:19:42;23.60;74.80
37782;DHT22;23621;50.878;4.584;2023-07-02T00:22:29;23.60;74.70
37782;DHT22;23621;50.878;4.584;2023-07-02T00:25:18;23.60;75.70
37782;DHT22;23621;50.878;4.584;2023-07-02T00:28:05;23.60;75.00
37782;DHT22;23621;50.878;4.584;2023-07-02T00:30:52;23.60;74.80
37782;DHT22;23621;50.878;4.584;2023-07-02T00:33:40;23.70;75.00
37782;DHT22;23621;50.878;4.584;2023-07-02T00:36:28;23.70;75.00
37782;DHT22;23621;50.878;4.584;2023-07-02T00:39:16;23.60;75.00
37782;DHT22;23621;50.878;4.584;2023-07-02T00:42:04;23.50;75.20
37782;DHT22;23621;50.878;4.584;2023-07-02T00:44:52;23.60;75.20
37782;DHT22;23621;50.878;4.584;2023-07-02T00:47:39;23.60;75.20
37782;DHT22;23621;50.878;4.584;2023-07-02T00:50:26;23.60;75.20
37782;DHT22;23621;50.878;4.584;2023-07-02T00:53:14;23.50;75.30
37782;DHT22;23621;50.878;4.584;2023-07-02T00:56:01;23.40;75.30
37782;DHT22;23621;50.878;4.584;2023-07-02T00:58:51;23.40;75.50
37782;DHT22;23621;50.878;4.584;2023-07-02T01:01:38;23.40;75.50
37782;DHT22;23621;50.878;4.584;2023-07-02T01:04:27;23.40;75.50
37782;DHT22;23621;50.878;4.584;2023-07-02T01:07:14;23.40;75.60
37782;DHT22;23621;50.878;4.584;2023-07-02T01:10:02;23.40;75.70
37782;DHT22;23621;50.878;4.584;2023-07-02T01:12:49;23.30;75.70
37782;DHT22;23621;50.878;4.584;2023-07-02T01:15:38;23.30;76.00
37782;DHT22;23621;50.878;4.584;2023-07-02T01:18:26;23.20;76.10
37782;DHT22;23621;50.878;4.584;2023-07-02T01:21:14;23.30;76.10
37782;DHT22;23621;50.878;4.584;2023-07-02T01:24:01;23.20;76.20
37782;DHT22;23621;50.878;4.584;2023-07-02T01:26:50;23.10;76.50
37782;DHT22;23621;50.878;4.584;2023-07-02T01:29:37;23.20;76.50
37782;DHT22;23621;50.878;4.584;2023-07-02T01:32:24;23.20;76.70
37782;DHT22;23621;50.878;4.584;2023-07-02T01:35:12;23.20;76.80
37782;DHT22;23621;50.878;4.584;2023-07-02T01:37:59;23.20;76.70
37782;DHT22;23621;50.878;4.584;2023-07-02T01:40:46;23.20;76.70
37782;DHT22;23621;50.878;4.584;2023-07-02T01:43:34;23.20;76.70
37782;DHT22;23621;50.878;4.584;2023-07-02T01:46:21;23.20;76.80
37782;DHT22;23621;50.878;4.584;2023-07-02T01:49:08;23.20;76.90
37782;DHT22;23621;50.878;4.584;2023-07-02T01:51:56;23.20;77.00
37782;DHT22;23621;50.878;4.584;2023-07-02T01:54:44;23.20;77.10
37782;DHT22;23621;50.878;4.584;2023-07-02T01:57:32;23.10;77.10
37782;DHT22;23621;50.878;4.584;2023-07-02T02:00:19;23.20;77.10
37782;DHT22;23621;50.878;4.584;2023-07-02T02:03:06;23.10;77.40
37782;DHT22;23621;50.878;4.584;2023-07-02T02:05:54;23.10;77.30
37782;DHT22;23621;50.878;4.584;2023-07-02T02:08:41;23.10;77.40
37782;DHT22;23621;50.878;4.584;2023-07-02T02:11:28;23.10;77.40
37782;DHT22;23621;50.878;4.584;2023-07-02T02:14:16;23.10;77.50
37782;DHT22;23621;50.878;4.584;2023-07-02T02:17:03;23.10;77.60
37782;DHT22;23621;50.878;4.584;2023-07-02T02:19:50;23.00;77.70
37782;DHT22;23621;50.878;4.584;2023-07-02T02:22:38;23.10;77.90
37782;DHT22;23621;50.878;4.584;2023-07-02T02:25:25;23.10;78.00
37782;DHT22;23621;50.878;4.584;2023-07-02T02:28:12;23.10;77.90
37782;DHT22;23621;50.878;4.584;2023-07-02T02:30:59;23.10;78.00
37782;DHT22;23621;50.878;4.584;2023-07-02T02:33:46;23.10;78.10
37782;DHT22;23621;50.878;4.584;2023-07-02T02:36:34;23.10;78.00
37782;DHT22;23621;50.878;4.584;2023-07-02T02:39:21;23.10;78.10
37782;DHT22;23621;50.878;4.584;2023-07-02T02:42:08;23.10;78.10
37782;DHT22;23621;50.878;4.584;2023-07-02T02:44:55;23.20;78.00
37782;DHT22;23621;50.878;4.584;2023-07-02T02:47:42;23.10;78.10
37782;DHT22;23621;50.878;4.584;2023-07-02T02:50:30;23.10;78.20
37782;DHT22;23621;50.878;4.584;2023-07-02T02:53:17;23.10;78.20
37782;DHT22;23621;50.878;4.584;2023-07-02T02:56:04;23.10;78.30
37782;DHT22;23621;50.878;4.584;2023-07-02T02:58:51;23.10;78.50
37782;DHT22;23621;50.878;4.584;2023-07-02T03:01:38;23.00;78.40
37782;DHT22;23621;50.878;4.584;2023-07-02T03:04:26;23.10;78.60
37782;DHT22;23621;50.878;4.584;2023-07-02T03:07:13;23.10;78.40
37782;DHT22;23621;50.878;4.584;2023-07-02T03:10:01;23.10;78.40
37782;DHT22;23621;50.878;4.584;2023-07-02T03:12:48;23.10;78.70
37782;DHT22;23621;50.878;4.584;2023-07-02T03:15:35;23.00;78.60
37782;DHT22;23621;50.878;4.584;2023-07-02T03:18:22;22.90;78.70
37782;DHT22;23621;50.878;4.584;2023-07-02T03:21:09;22.90;78.80
37782;DHT22;23621;50.878;4.584;2023-07-02T03:23:57;22.90;78.80
37782;DHT22;23621;50.878;4.584;2023-07-02T03:26:44;22.90;78.90
37782;DHT22;23621;50.878;4.584;2023-07-02T03:29:33;23.00;78.90
37782;DHT22;23621;50.878;4.584;2023-07-02T03:32:20;23.00;79.00
37782;DHT22;23621;50.878;4.584;2023-07-02T03:35:08;23.00;79.00
37782;DHT22;23621;50.878;4.584;2023-07-02T03:37:55;23.00;79.00
37782;DHT22;23621;50.878;4.584;2023-07-02T03:40:44;22.90;79.10
37782;DHT22;23621;50.878;4.584;2023-07-02T03:43:32;22.90;79.20
37782;DHT22;23621;50.878;4.584;2023-07-02T03:46:19;22.90;79.30
37782;DHT22;23621;50.878;4.584;2023-07-02T03:49:06;22.90;79.30
37782;DHT22;23621;50.878;4.584;2023-07-02T03:51:54;22.90;79.40
37782;DHT22;23621;50.878;4.584;2023-07-02T03:54:41;22.90;79.50
37782;DHT22;23621;50.878;4.584;2023-07-02T03:57:28;22.80;79.90
37782;DHT22;23621;50.878;4.584;2023-07-02T04:00:16;22.80;79.60
37782;DHT22;23621;50.878;4.584;2023-07-02T04:03:03;22.80;79.60
37782;DHT22;23621;50.878;4.584;2023-07-02T04:05:51;22.80;79.70
37782;DHT22;23621;50.878;4.584;2023-07-02T04:08:38;22.80;79.80
37782;DHT22;23621;50.878;4.584;2023-07-02T04:11:25;22.90;80.00
37782;DHT22;23621;50.878;4.584;2023-07-02T04:14:12;22.90;79.90
37782;DHT22;23621;50.878;4.584;2023-07-02T04:17:01;22.90;79.90
37782;DHT22;23621;50.878;4.584;2023-07-02T04:19:54;23.00;80.00
37782;DHT22;23621;50.878;4.584;2023-07-02T04:22:41;22.90;80.00
37782;DHT22;23621;50.878;4.584;2023-07-02T04:25:28;22.90;80.10
37782;DHT22;23621;50.878;4.584;2023-07-02T04:28:36;22.80;80.20
37782;DHT22;23621;50.878;4.584;2023-07-02T04:31:23;22.80;80.50
37782;DHT22;23621;50.878;4.584;2023-07-02T04:34:10;22.80;80.60
37782;DHT22;23621;50.878;4.584;2023-07-02T04:36:57;22.70;80.70
37782;DHT22;23621;50.878;4.584;2023-07-02T04:39:45;22.70;80.80
37782;DHT22;23621;50.878;4.584;2023-07-02T04:42:32;22.80;80.80
37782;DHT22;23621;50.878;4.584;2023-07-02T04:45:27;22.70;80.90
37782;DHT22;23621;50.878;4.584;2023-07-02T04:48:19;22.80;81.10
37782;DHT22;23621;50.878;4.584;2023-07-02T04:51:06;22.80;81.10
37782;DHT22;23621;50.878;4.584;2023-07-02T04:53:53;22.80;81.10
37782;DHT22;23621;50.878;4.584;2023-07-02T04:56:40;22.80;81.30
37782;DHT22;23621;50.878;4.584;2023-07-02T04:59:27;22.80;81.40
37782;DHT22;23621;50.878;4.584;2023-07-02T05:02:15;22.80;81.50
37782;DHT22;23621;50.878;4.584;2023-07-02T05:05:02;22.80;81.40
37782;DHT22;23621;50.878;4.584;2023-07-02T05:07:49;22.80;81.40
37782;DHT22;23621;50.878;4.584;2023-07-02T05:10:36;22.80;81.60
37782;DHT22;23621;50.878;4.584;2023-07-02T05:13:24;22.80;81.70
37782;DHT22;23621;50.878;4.584;2023-07-02T05:16:13;22.80;81.60
37782;DHT22;23621;50.878;4.584;2023-07-02T05:19:01;22.80;81.80
37782;DHT22;23621;50.878;4.584;2023-07-02T05:21:51;22.80;81.70
37782;DHT22;23621;50.878;4.584;2023-07-02T05:24:38;22.80;81.70
37782;DHT22;23621;50.878;4.584;2023-07-02T05:27:27;22.90;81.70
37782;DHT22;23621;50.878;4.584;2023-07-02T05:30:14;22.90;81.70
37782;DHT22;23621;50.878;4.584;2023-07-02T05:33:02;22.90;81.70
37782;DHT22;23621;50.878;4.584;2023-07-02T05:35:49;23.00;81.80
37782;DHT22;23621;50.878;4.584;2023-07-02T05:38:36;23.00;81.70
37782;DHT22;23621;50.878;4.584;2023-07-02T05:41:23;23.00;81.80
37782;DHT22;23621;50.878;4.584;2023-07-02T05:44:11;23.10;81.90
37782;DHT22;23621;50.878;4.584;2023-07-02T05:46:59;23.10;81.80
37782;DHT22;23621;50.878;4.584;2023-07-02T05:49:46;23.10;81.80
37782;DHT22;23621;50.878;4.584;2023-07-02T05:52:33;23.10;81.80
37782;DHT22;23621;50.878;4.584;2023-07-02T05:55:20;23.10;81.70
37782;DHT22;23621;50.878;4.584;2023-07-02T05:58:08;23.20;81.80
37782;DHT22;23621;50.878;4.584;2023-07-02T06:00:55;23.30;81.70
37782;DHT22;23621;50.878;4.584;2023-07-02T06:03:42;23.40;81.50
37782;DHT22;23621;50.878;4.584;2023-07-02T06:06:32;23.50;81.30
37782;DHT22;23621;50.878;4.584;2023-07-02T06:09:20;23.50;81.30
37782;DHT22;23621;50.878;4.584;2023-07-02T06:12:07;23.50;81.20
37782;DHT22;23621;50.878;4.584;2023-07-02T06:14:55;23.50;81.10
37782;DHT22;23621;50.878;4.584;2023-07-02T06:17:42;23.60;81.00
37782;DHT22;23621;50.878;4.584;2023-07-02T06:20:29;23.60;81.00
37782;DHT22;23621;50.878;4.584;2023-07-02T06:23:17;23.70;80.90
37782;DHT22;23621;50.878;4.584;2023-07-02T06:26:04;23.70;80.70
37782;DHT22;23621;50.878;4.584;2023-07-02T06:28:51;23.70;80.70
37782;DHT22;23621;50.878;4.584;2023-07-02T06:31:38;23.80;80.90
37782;DHT22;23621;50.878;4.584;2023-07-02T06:34:25;23.70;80.70
37782;DHT22;23621;50.878;4.584;2023-07-02T06:37:13;23.70;80.50
37782;DHT22;23621;50.878;4.584;2023-07-02T06:40:00;23.70;80.50
37782;DHT22;23621;50.878;4.584;2023-07-02T06:42:47;23.90;80.70
37782;DHT22;23621;50.878;4.584;2023-07-02T06:45:34;23.90;80.60
37782;DHT22;23621;50.878;4.584;2023-07-02T06:48:22;23.90;80.10
37782;DHT22;23621;50.878;4.584;2023-07-02T06:51:09;23.90;79.80
37782;DHT22;23621;50.878;4.584;2023-07-02T06:53:59;24.00;79.60
37782;DHT22;23621;50.878;4.584;2023-07-02T06:56:46;24.00;79.40
37782;DHT22;23621;50.878;4.584;2023-07-02T06:59:33;24.00;78.80
37782;DHT22;23621;50.878;4.584;2023-07-02T07:02:21;24.10;78.00
37782;DHT22;23621;50.878;4.584;2023-07-02T07:05:08;24.10;77.40
37782;DHT22;23621;50.878;4.584;2023-07-02T07:07:56;24.10;76.70
37782;DHT22;23621;50.878;4.584;2023-07-02T07:10:44;24.10;76.10
37782;DHT22;23621;50.878;4.584;2023-07-02T07:13:32;24.10;75.70
37782;DHT22;23621;50.878;4.584;2023-07-02T07:16:19;24.30;75.50
37782;DHT22;23621;50.878;4.584;2023-07-02T07:19:07;24.40;75.00
37782;DHT22;23621;50.878;4.584;2023-07-02T07:21:54;24.40;73.90
37782;DHT22;23621;50.878;4.584;2023-07-02T07:24:41;24.60;74.00
37782;DHT22;23621;50.878;4.584;2023-07-02T07:27:29;24.60;73.70
37782;DHT22;23621;50.878;4.584;2023-07-02T07:30:16;24.60;73.40
37782;DHT22;23621;50.878;4.584;2023-07-02T07:33:09;24.80;73.70
37782;DHT22;23621;50.878;4.584;2023-07-02T07:35:57;24.80;73.10
37782;DHT22;23621;50.878;4.584;2023-07-02T07:38:44;25.00;73.00
37782;DHT22;23621;50.878;4.584;2023-07-02T07:41:31;25.00;73.30
37782;DHT22;23621;50.878;4.584;2023-07-02T07:44:19;25.10;71.50
37782;DHT22;23621;50.878;4.584;2023-07-02T07:47:06;25.20;70.50
37782;DHT22;23621;50.878;4.584;2023-07-02T07:49:54;25.10;69.40
37782;DHT22;23621;50.878;4.584;2023-07-02T07:52:42;25.10;68.60
37782;DHT22;23621;50.878;4.584;2023-07-02T07:55:31;25.00;68.50
37782;DHT22;23621;50.878;4.584;2023-07-02T07:58:18;25.00;68.40
37782;DHT22;23621;50.878;4.584;2023-07-02T08:01:05;25.10;68.10
37782;DHT22;23621;50.878;4.584;2023-07-02T08:03:53;25.20;68.10
37782;DHT22;23621;50.878;4.584;2023-07-02T08:06:40;25.20;68.10
37782;DHT22;23621;50.878;4.584;2023-07-02T08:09:29;25.30;67.70
37782;DHT22;23621;50.878;4.584;2023-07-02T08:12:17;25.40;66.80
37782;DHT22;23621;50.878;4.584;2023-07-02T08:15:04;25.40;66.40
37782;DHT22;23621;50.878;4.584;2023-07-02T08:17:52;25.40;66.60
37782;DHT22;23621;50.878;4.584;2023-07-02T08:20:41;25.40;66.40
37782;DHT22;23621;50.878;4.584;2023-07-02T08:23:28;25.40;66.10
37782;DHT22;23621;50.878;4.584;2023-07-02T08:26:16;25.50;66.60
37782;DHT22;23621;50.878;4.584;2023-07-02T08:29:03;25.50;65.80
37782;DHT22;23621;50.878;4.584;2023-07-02T08:31:50;25.60;66.00
37782;DHT22;23621;50.878;4.584;2023-07-02T08:34:38;25.70;65.50
37782;DHT22;23621;50.878;4.584;2023-07-02T08:37:25;25.70;65.30
37782;DHT22;23621;50.878;4.584;2023-07-02T08:40:16;25.80;65.70
37782;DHT22;23621;50.878;4.584;2023-07-02T08:43:04;25.80;66.30
37782;DHT22;23621;50.878;4.584;2023-07-02T08:45:53;25.80;66.20
37782;DHT22;23621;50.878;4.584;2023-07-02T08:48:40;25.80;65.80
37782;DHT22;23621;50.878;4.584;2023-07-02T08:51:27;25.90;66.30
37782;DHT22;23621;50.878;4.584;2023-07-02T08:54:17;26.00;67.50
37782;DHT22;23621;50.878;4.584;2023-07-02T08:57:05;26.00;66.90
37782;DHT22;23621;50.878;4.584;2023-07-02T08:59:52;26.00;66.20
37782;DHT22;23621;50.878;4.584;2023-07-02T09:02:39;25.90;65.90
37782;DHT22;23621;50.878;4.584;2023-07-02T09:05:26;25.90;66.10
37782;DHT22;23621;50.878;4.584;2023-07-02T09:08:23;26.00;65.70
37782;DHT22;23621;50.878;4.584;2023-07-02T09:11:12;26.00;64.20
37782;DHT22;23621;50.878;4.584;2023-07-02T09:13:59;26.00;64.40
37782;DHT22;23621;50.878;4.584;2023-07-02T09:16:47;25.90;64.50
37782;DHT22;23621;50.878;4.584;2023-07-02T09:19:35;26.00;64.50
37782;DHT22;23621;50.878;4.584;2023-07-02T09:22:23;26.00;64.80
37782;DHT22;23621;50.878;4.584;2023-07-02T09:25:10;26.00;64.60
37782;DHT22;23621;50.878;4.584;2023-07-02T09:27:58;26.00;64.70
37782;DHT22;23621;50.878;4.584;2023-07-02T09:30:56;25.90;64.90
37782;DHT22;23621;50.878;4.584;2023-07-02T09:33:44;25.90;65.20
37782;DHT22;23621;50.878;4.584;2023-07-02T09:36:31;25.80;65.60
37782;DHT22;23621;50.878;4.584;2023-07-02T09:39:24;25.70;65.90
37782;DHT22;23621;50.878;4.584;2023-07-02T09:42:12;25.80;66.70
37782;DHT22;23621;50.878;4.584;2023-07-02T09:45:00;25.90;67.10
37782;DHT22;23621;50.878;4.584;2023-07-02T09:47:51;25.90;65.70
37782;DHT22;23621;50.878;4.584;2023-07-02T09:50:44;26.10;65.90
37782;DHT22;23621;50.878;4.584;2023-07-02T09:53:32;26.00;64.70
37782;DHT22;23621;50.878;4.584;2023-07-02T09:56:19;26.00;65.00
37782;DHT22;23621;50.878;4.584;2023-07-02T09:59:08;26.10;65.60
37782;DHT22;23621;50.878;4.584;2023-07-02T10:01:56;26.00;65.50
37782;DHT22;23621;50.878;4.584;2023-07-02T10:04:47;26.10;65.70
37782;DHT22;23621;50.878;4.584;2023-07-02T10:07:37;26.20;66.70
37782;DHT22;23621;50.878;4.584;2023-07-02T10:10:31;26.10;64.50
37782;DHT22;23621;50.878;4.584;2023-07-02T10:13:28;26.00;64.40
37782;DHT22;23621;50.878;4.584;2023-07-02T10:16:15;25.90;64.20
37782;DHT22;23621;50.878;4.584;2023-07-02T10:19:12;25.80;64.10
37782;DHT22;23621;50.878;4.584;2023-07-02T10:22:03;25.80;63.30
37782;DHT22;23621;50.878;4.584;2023-07-02T10:27:41;25.60;63.30
37782;DHT22;23621;50.878;4.584;2023-07-02T10:30:38;25.50;63.40
37782;DHT22;23621;50.878;4.584;2023-07-02T10:33:26;25.60;63.70
37782;DHT22;23621;50.878;4.584;2023-07-02T10:36:20;25.80;64.30
37782;DHT22;23621;50.878;4.584;2023-07-02T10:39:09;25.90;63.50
37782;DHT22;23621;50.878;4.584;2023-07-02T10:42:10;26.00;62.70
37782;DHT22;23621;50.878;4.584;2023-07-02T10:44:57;26.10;62.10
37782;DHT22;23621;50.878;4.584;2023-07-02T10:47:45;26.20;62.00
37782;DHT22;23621;50.878;4.584;2023-07-02T10:50:32;26.20;62.20
37782;DHT22;23621;50.878;4.584;2023-07-02T10:53:20;26.20;62.00
37782;DHT22;23621;50.878;4.584;2023-07-02T10:56:15;26.20;61.80
37782;DHT22;23621;50.878;4.584;2023-07-02T10:59:03;26.20;61.50
37782;DHT22;23621;50.878;4.584;2023-07-02T11:01:50;25.90;60.90
37782;DHT22;23621;50.878;4.584;2023-07-02T11:04:38;25.90;61.10
37782;DHT22;23621;50.878;4.584;2023-07-02T11:07:25;25.90;61.30
37782;DHT22;23621;50.878;4.584;2023-07-02T11:10:19;26.00;61.50
37782;DHT22;23621;50.878;4.584;2023-07-02T11:13:17;26.20;62.30
37782;DHT22;23621;50.878;4.584;2023-07-02T11:16:05;26.30;62.60
37782;DHT22;23621;50.878;4.584;2023-07-02T11:19:08;26.50;62.50
37782;DHT22;23621;50.878;4.584;2023-07-02T11:21:57;26.70;61.80
37782;DHT22;23621;50.878;4.584;2023-07-02T11:24:45;26.80;61.80
37782;DHT22;23621;50.878;4.584;2023-07-02T11:27:32;26.90;60.90
37782;DHT22;23621;50.878;4.584;2023-07-02T11:30:19;26.90;60.00
37782;DHT22;23621;50.878;4.584;2023-07-02T11:33:06;26.80;59.70
37782;DHT22;23621;50.878;4.584;2023-07-02T11:35:54;26.70;59.30
37782;DHT22;23621;50.878;4.584;2023-07-02T11:38:41;26.80;59.90
37782;DHT22;23621;50.878;4.584;2023-07-02T11:41:40;26.70;59.90
37782;DHT22;23621;50.878;4.584;2023-07-02T11:44:27;26.80;61.20
37782;DHT22;23621;50.878;4.584;2023-07-02T11:47:14;26.90;61.40
37782;DHT22;23621;50.878;4.584;2023-07-02T11:50:02;27.00;61.00
37782;DHT22;23621;50.878;4.584;2023-07-02T11:53:09;27.00;59.80
37782;DHT22;23621;50.878;4.584;2023-07-02T11:55:56;27.00;60.00
37782;DHT22;23621;50.878;4.584;2023-07-02T11:58:43;26.90;59.60
37782;DHT22;23621;50.878;4.584;2023-07-02T12:01:31;27.00;60.10
37782;DHT22;23621;50.878;4.584;2023-07-02T12:04:18;27.10;59.40
37782;DHT22;23621;50.878;4.584;2023-07-02T12:07:05;27.20;58.90
37782;DHT22;23621;50.878;4.584;2023-07-02T12:09:53;27.20;58.10
37782;DHT22;23621;50.878;4.584;2023-07-02T12:12:40;27.30;58.70
37782;DHT22;23621;50.878;4.584;2023-07-02T12:15:27;27.40;59.20
37782;DHT22;23621;50.878;4.584;2023-07-02T12:18:15;27.50;58.60
37782;DHT22;23621;50.878;4.584;2023-07-02T12:21:02;27.70;58.80
37782;DHT22;23621;50.878;4.584;2023-07-02T12:23:50;27.90;58.30
37782;DHT22;23621;50.878;4.584;2023-07-02T12:26:37;28.00;58.60
37782;DHT22;23621;50.878;4.584;2023-07-02T12:29:24;28.00;58.60
37782;DHT22;23621;50.878;4.584;2023-07-02T12:32:11;28.00;58.90
37782;DHT22;23621;50.878;4.584;2023-07-02T12:34:59;28.10;58.60
37782;DHT22;23621;50.878;4.584;2023-07-02T12:37:49;28.10;57.70
37782;DHT22;23621;50.878;4.584;2023-07-02T12:40:37;28.10;58.00
37782;DHT22;23621;50.878;4.584;2023-07-02T12:43:24;28.10;57.30
37782;DHT22;23621;50.878;4.584;2023-07-02T12:46:12;28.00;57.00
37782;DHT22;23621;50.878;4.584;2023-07-02T12:48:59;28.00;57.50
37782;DHT22;23621;50.878;4.584;2023-07-02T12:51:46;28.00;58.60
37782;DHT22;23621;50.878;4.584;2023-07-02T12:54:34;28.10;58.70
37782;DHT22;23621;50.878;4.584;2023-07-02T12:57:21;28.10;57.40
37782;DHT22;23621;50.878;4.584;2023-07-02T13:00:09;28.10;57.00
37782;DHT22;23621;50.878;4.584;2023-07-02T13:02:56;28.10;57.70
37782;DHT22;23621;50.878;4.584;2023-07-02T13:05:51;28.20;57.50
37782;DHT22;23621;50.878;4.584;2023-07-02T13:08:38;28.10;57.50
37782;DHT22;23621;50.878;4.584;2023-07-02T13:11:26;27.80;57.00
37782;DHT22;23621;50.878;4.584;2023-07-02T13:14:13;27.90;58.20
37782;DHT22;23621;50.878;4.584;2023-07-02T13:17:00;28.00;58.20
37782;DHT22;23621;50.878;4.584;2023-07-02T13:19:50;28.10;59.00
37782;DHT22;23621;50.878;4.584;2023-07-02T13:22:37;28.20;58.40
37782;DHT22;23621;50.878;4.584;2023-07-02T13:25:24;28.40;58.30
37782;DHT22;23621;50.878;4.584;2023-07-02T13:28:12;28.50;57.40
37782;DHT22;23621;50.878;4.584;2023-07-02T13:30:59;28.60;58.10
37782;DHT22;23621;50.878;4.584;2023-07-02T13:33:46;28.60;58.00
37782;DHT22;23621;50.878;4.584;2023-07-02T13:36:33;28.50;56.60
37782;DHT22;23621;50.878;4.584;2023-07-02T13:39:21;28.40;56.90
37782;DHT22;23621;50.878;4.584;2023-07-02T13:42:08;28.40;56.70
37782;DHT22;23621;50.878;4.584;2023-07-02T13:44:55;28.30;55.90
37782;DHT22;23621;50.878;4.584;2023-07-02T13:47:42;28.30;56.40
37782;DHT22;23621;50.878;4.584;2023-07-02T13:50:30;28.40;56.00
37782;DHT22;23621;50.878;4.584;2023-07-02T13:53:17;28.40;56.40
37782;DHT22;23621;50.878;4.584;2023-07-02T13:56:04;28.50;56.60
37782;DHT22;23621;50.878;4.584;2023-07-02T14:01:45;28.50;55.70
37782;DHT22;23621;50.878;4.584;2023-07-02T14:04:32;28.40;55.10
37782;DHT22;23621;50.878;4.584;2023-07-02T14:07:20;28.30;55.10
37782;DHT22;23621;50.878;4.584;2023-07-02T14:10:08;28.50;55.40
37782;DHT22;23621;50.878;4.584;2023-07-02T14:12:55;28.50;55.70
37782;DHT22;23621;50.878;4.584;2023-07-02T14:15:42;28.60;55.60
37782;DHT22;23621;50.878;4.584;2023-07-02T14:18:31;28.70;55.50
37782;DHT22;23621;50.878;4.584;2023-07-02T14:21:18;28.70;55.30
37782;DHT22;23621;50.878;4.584;2023-07-02T14:24:07;28.90;55.70
37782;DHT22;23621;50.878;4.584;2023-07-02T14:26:54;28.80;54.30
37782;DHT22;23621;50.878;4.584;2023-07-02T14:29:41;28.90;54.50
37782;DHT22;23621;50.878;4.584;2023-07-02T14:32:28;28.90;54.40
37782;DHT22;23621;50.878;4.584;2023-07-02T14:35:16;28.80;53.90
37782;DHT22;23621;50.878;4.584;2023-07-02T14:38:03;28.70;54.00
37782;DHT22;23621;50.878;4.584;2023-07-02T14:40:50;28.90;55.10
37782;DHT22;23621;50.878;4.584;2023-07-02T14:43:37;29.00;54.80
37782;DHT22;23621;50.878;4.584;2023-07-02T14:46:25;29.30;55.70
37782;DHT22;23621;50.878;4.584;2023-07-02T14:49:12;29.40;54.80
37782;DHT22;23621;50.878;4.584;2023-07-02T14:51:59;29.40;54.50
37782;DHT22;23621;50.878;4.584;2023-07-02T14:54:46;29.30;54.10
37782;DHT22;23621;50.878;4.584;2023-07-02T14:57:34;29.30;53.90
37782;DHT22;23621;50.878;4.584;2023-07-02T15:00:21;29.20;53.80
37782;DHT22;23621;50.878;4.584;2023-07-02T15:03:08;29.20;54.00
37782;DHT22;23621;50.878;4.584;2023-07-02T15:06:12;29.10;54.40
37782;DHT22;23621;50.878;4.584;2023-07-02T15:08:59;29.10;54.70
37782;DHT22;23621;50.878;4.584;2023-07-02T15:11:46;29.10;54.50
37782;DHT22;23621;50.878;4.584;2023-07-02T15:14:34;29.00;54.70
37782;DHT22;23621;50.878;4.584;2023-07-02T15:17:21;28.90;54.60
37782;DHT22;23621;50.878;4.584;2023-07-02T15:20:08;28.80;54.00
37782;DHT22;23621;50.878;4.584;2023-07-02T15:22:56;28.70;54.00
37782;DHT22;23621;50.878;4.584;2023-07-02T15:25:43;28.80;54.20
37782;DHT22;23621;50.878;4.584;2023-07-02T15:28:30;28.70;54.30
37782;DHT22;23621;50.878;4.584;2023-07-02T15:31:17;28.70;53.60
37782;DHT22;23621;50.878;4.584;2023-07-02T15:34:08;28.90;53.90
37782;DHT22;23621;50.878;4.584;2023-07-02T15:36:55;29.10;54.10
37782;DHT22;23621;50.878;4.584;2023-07-02T15:39:42;29.40;53.50
37782;DHT22;23621;50.878;4.584;2023-07-02T15:42:29;29.30;52.30
37782;DHT22;23621;50.878;4.584;2023-07-02T15:45:19;29.30;52.20
37782;DHT22;23621;50.878;4.584;2023-07-02T15:48:06;29.30;52.40
37782;DHT22;23621;50.878;4.584;2023-07-02T15:50:53;29.60;52.00
37782;DHT22;23621;50.878;4.584;2023-07-02T15:53:41;29.50;51.80
37782;DHT22;23621;50.878;4.584;2023-07-02T15:56:29;29.50;52.20
37782;DHT22;23621;50.878;4.584;2023-07-02T15:59:19;29.70;51.80
37782;DHT22;23621;50.878;4.584;2023-07-02T16:02:06;30.50;51.50
37782;DHT22;23621;50.878;4.584;2023-07-02T16:04:54;31.60;50.90
37782;DHT22;23621;50.878;4.584;2023-07-02T16:07:41;31.60;50.30
37782;DHT22;23621;50.878;4.584;2023-07-02T16:10:29;31.00;49.20
37782;DHT22;23621;50.878;4.584;2023-07-02T16:13:16;30.60;49.80
37782;DHT22;23621;50.878;4.584;2023-07-02T16:16:04;30.30;50.50
37782;DHT22;23621;50.878;4.584;2023-07-02T16:18:51;30.40;51.20
37782;DHT22;23621;50.878;4.584;2023-07-02T16:21:39;30.90;50.60
37782;DHT22;23621;50.878;4.584;2023-07-02T16:24:30;31.50;49.10
37782;DHT22;23621;50.878;4.584;2023-07-02T16:27:19;31.90;48.90
37782;DHT22;23621;50.878;4.584;2023-07-02T16:30:06;32.30;48.00
37782;DHT22;23621;50.878;4.584;2023-07-02T16:32:54;32.30;47.50
37782;DHT22;23621;50.878;4.584;2023-07-02T16:35:41;31.50;47.80
37782;DHT22;23621;50.878;4.584;2023-07-02T16:38:28;31.00;49.00
37782;DHT22;23621;50.878;4.584;2023-07-02T16:41:16;30.70;49.70
37782;DHT22;23621;50.878;4.584;2023-07-02T16:44:04;31.00;48.90
37782;DHT22;23621;50.878;4.584;2023-07-02T16:46:54;31.30;49.00
37782;DHT22;23621;50.878;4.584;2023-07-02T16:49:47;32.40;47.70
37782;DHT22;23621;50.878;4.584;2023-07-02T16:52:36;33.70;46.20
37782;DHT22;23621;50.878;4.584;2023-07-02T16:55:24;34.00;46.10
37782;DHT22;23621;50.878;4.584;2023-07-02T16:58:11;33.30;45.30
37782;DHT22;23621;50.878;4.584;2023-07-02T17:01:05;33.30;45.40
37782;DHT22;23621;50.878;4.584;2023-07-02T17:03:52;34.00;44.40
37782;DHT22;23621;50.878;4.584;2023-07-02T17:06:43;34.70;43.30
37782;DHT22;23621;50.878;4.584;2023-07-02T17:09:39;35.60;42.50
37782;DHT22;23621;50.878;4.584;2023-07-02T17:12:29;36.40;41.90
37782;DHT22;23621;50.878;4.584;2023-07-02T17:15:16;37.10;40.80
37782;DHT22;23621;50.878;4.584;2023-07-02T17:18:03;37.00;40.70
37782;DHT22;23621;50.878;4.584;2023-07-02T17:20:51;35.90;40.80
37782;DHT22;23621;50.878;4.584;2023-07-02T17:23:39;35.20;41.10
37782;DHT22;23621;50.878;4.584;2023-07-02T17:26:26;34.60;42.10
37782;DHT22;23621;50.878;4.584;2023-07-02T17:29:13;34.30;42.50
37782;DHT22;23621;50.878;4.584;2023-07-02T17:32:06;34.40;41.90
37782;DHT22;23621;50.878;4.584;2023-07-02T17:34:54;34.70;42.20
37782;DHT22;23621;50.878;4.584;2023-07-02T17:37:41;34.80;41.80
37782;DHT22;23621;50.878;4.584;2023-07-02T17:40:30;34.50;42.10
37782;DHT22;23621;50.878;4.584;2023-07-02T17:43:19;33.90;42.90
37782;DHT22;23621;50.878;4.584;2023-07-02T17:46:06;33.00;43.70